Time;durP1;ratioP1;P1;durP2;ratioP2;P2;SDS_P1;SDS_P2;PMS_P1;PMS_P2;Temp;Humidity;BMP_temperature;BMP_pressure;BME280_temperature;BME280_humidity;BME280_pressure;Samples;Min_cycle;Max_cycle;Signal;HPM_P1;HPM_P2
2023/06/02 00:01:31;;;;;;;9.32;4.47;;;;;;;12.39;80.81;97163.31;4961353;28;20054;-63
2023/06/02 00:04:01;;;;;;;9.48;4.13;;;;;;;12.42;79.94;97157.34;4960525;28;20043;-63
2023/06/02 00:06:32;;;;;;;10.38;4.93;;;;;;;12.14;80.91;97151.31;4957306;28;20636;-63
2023/06/02 00:09:03;;;;;;;;;;;;;;;12.02;81.70;97155.03;4964488;28;20034;-63
2023/06/02 00:11:34;;;;;;;11.65;4.70;;;;;;;11.94;83.02;97150.97;4954887;28;20431;-63
2023/06/02 00:14:01;;;;;;;9.00;4.72;;;;;;;11.82;83.27;97148.47;4956857;28;20046;-63
2023/06/02 00:16:28;;;;;;;10.07;5.80;;;;;;;11.87;83.19;97150.38;4964137;28;20152;-63
2023/06/02 00:18:56;;;;;;;9.05;5.32;;;;;;;11.89;83.13;97144.69;4959754;28;20051;-63
2023/06/02 00:21:23;;;;;;;11.10;6.03;;;;;;;11.83;83.04;97146.56;4954812;28;20130;-63
2023/06/02 00:23:50;;;;;;;9.88;4.97;;;;;;;11.75;83.87;97147.09;4948542;28;20504;-63
2023/06/02 00:26:17;;;;;;;11.43;4.72;;;;;;;11.55;84.12;97154.06;4958627;28;20043;-63
2023/06/02 00:28:45;;;;;;;9.65;5.18;;;;;;;11.56;84.63;97153.78;4975941;28;20540;-63
2023/06/02 00:31:12;;;;;;;10.80;5.35;;;;;;;11.71;83.52;97153.06;4958673;28;20045;-63
2023/06/02 00:33:39;;;;;;;9.60;5.07;;;;;;;11.80;83.19;97152.53;4951505;28;20057;-63
2023/06/02 00:36:05;;;;;;;10.50;5.03;;;;;;;11.72;83.62;97153.84;4949016;28;20061;-63
2023/06/02 00:38:32;;;;;;;10.43;5.63;;;;;;;11.85;82.75;97147.13;4953501;28;20386;-63
2023/06/02 00:40:59;;;;;;;9.13;4.80;;;;;;;11.83;82.56;97152.81;4957909;28;20042;-63
2023/06/02 00:43:26;;;;;;;8.45;4.57;;;;;;;11.81;82.33;97157.72;4962605;28;20047;-63
2023/06/02 00:45:52;;;;;;;9.23;4.43;;;;;;;11.88;82.27;97162.06;4963106;28;20050;-63
2023/06/02 00:48:20;;;;;;;9.23;5.03;;;;;;;11.55;83.43;97160.31;4957079;28;20051;-63
2023/06/02 00:50:46;;;;;;;8.57;4.57;;;;;;;11.37;84.40;97161.56;4945907;28;20039;-63
2023/06/02 00:53:14;;;;;;;9.88;5.15;;;;;;;11.26;85.28;97157.97;4954519;28;20051;-63
2023/06/02 00:55:41;;;;;;;11.13;5.15;;;;;;;11.20;85.12;97169.84;4954496;28;20043;-63
2023/06/02 00:58:13;;;;;;;9.50;4.72;;;;;;;11.31;84.59;97162.59;4959110;28;20542;-63
2023/06/02 01:00:43;;;;;;;7.45;4.00;;;;;;;11.41;83.98;97168.09;4957380;28;20174;-63
2023/06/02 01:03:14;;;;;;;9.32;4.78;;;;;;;11.32;84.51;97167.75;4956786;28;20046;-62
2023/06/02 01:05:43;;;;;;;8.20;4.40;;;;;;;11.34;84.30;97170.22;4963170;28;20109;-63
2023/06/02 01:08:12;;;;;;;7.15;4.10;;;;;;;11.26;84.32;97168.81;4957077;28;20094;-63
2023/06/02 01:10:40;;;;;;;6.80;3.70;;;;;;;11.33;84.17;97165.88;4957576;28;20047;-63
2023/06/02 01:13:07;;;;;;;9.32;4.57;;;;;;;11.22;85.51;97166.88;4958159;28;20133;-63
2023/06/02 01:15:35;;;;;;;10.27;3.67;;;;;;;11.08;85.61;97161.91;4964772;28;20089;-62
2023/06/02 01:18:08;;;;;;;8.25;4.30;;;;;;;11.02;86.12;97166.47;4950131;28;20050;-63
2023/06/02 01:20:39;;;;;;;9.70;5.78;;;;;;;10.99;86.04;97160.78;4955586;28;20124;-63
2023/06/02 01:23:15;;;;;;;8.43;4.47;;;;;;;10.99;86.00;97161.56;4952943;28;20402;-63
2023/06/02 01:25:41;;;;;;;8.77;4.97;;;;;;;10.83;87.32;97163.34;4957563;28;20421;-63
2023/06/02 01:28:09;;;;;;;10.18;4.90;;;;;;;10.91;86.28;97162.88;4957716;28;20421;-63
2023/06/02 01:30:36;;;;;;;9.35;4.70;;;;;;;10.93;86.58;97155.31;4962442;28;20312;-63
2023/06/02 01:33:12;;;;;;;9.60;4.30;;;;;;;10.95;86.17;97160.47;4960525;28;20061;-63
2023/06/02 01:35:44;;;;;;;10.23;4.80;;;;;;;11.03;85.82;97156.47;4953922;28;20292;-63
2023/06/02 01:38:13;;;;;;;11.93;4.80;;;;;;;10.96;87.15;97150.44;4957305;28;20042;-63
2023/06/02 01:40:42;;;;;;;6.68;3.67;;;;;;;10.90;86.24;97152.28;4956597;28;20134;-63
2023/06/02 01:43:10;;;;;;;8.48;4.10;;;;;;;10.79;87.56;97151.41;4956308;28;20047;-63
2023/06/02 01:45:37;;;;;;;8.30;4.40;;;;;;;10.73;87.69;97152.44;4962296;28;20169;-63
2023/06/02 01:48:06;;;;;;;7.88;3.95;;;;;;;10.62;88.01;97152.34;4962622;28;20540;-63
2023/06/02 01:50:37;;;;;;;9.65;4.90;;;;;;;10.35;89.88;97155.88;4977243;28;20050;-63
2023/06/02 01:53:04;;;;;;;7.43;4.35;;;;;;;10.31;90.01;97154.75;4963110;28;20054;-63
2023/06/02 01:55:33;;;;;;;7.32;3.88;;;;;;;10.43;89.35;97154.56;4960882;28;20073;-63
2023/06/02 01:58:00;;;;;;;9.18;4.47;;;;;;;10.50;89.06;97157.94;4960269;28;20685;-63
2023/06/02 02:00:27;;;;;;;8.63;4.15;;;;;;;10.49;88.79;97153.59;4951617;28;20050;-63
2023/06/02 02:02:54;;;;;;;7.28;4.20;;;;;;;10.52;89.17;97153.09;4955385;28;20308;-63
2023/06/02 02:05:21;;;;;;;7.95;4.63;;;;;;;10.72;87.70;97154.31;4964347;28;20085;-63
2023/06/02 02:07:50;;;;;;;7.85;4.70;;;;;;;10.67;88.57;97162.41;4962669;28;20102;-63
2023/06/02 02:10:17;;;;;;;8.60;4.63;;;;;;;10.57;88.35;97162.34;4960368;28;20031;-63
2023/06/02 02:12:44;;;;;;;12.07;5.20;;;;;;;10.48;89.18;97161.97;4957543;28;20074;-63
2023/06/02 02:15:10;;;;;;;7.38;4.50;;;;;;;10.33;89.49;97160.72;4980912;28;20057;-63
2023/06/02 02:17:44;;;;;;;8.48;4.47;;;;;;;10.19;90.86;97160.31;4940698;28;20325;-63
2023/06/02 02:20:12;;;;;;;10.63;5.07;;;;;;;10.30;90.61;97160.41;4963148;28;20466;-63
2023/06/02 02:22:39;;;;;;;9.68;4.82;;;;;;;10.18;91.08;97153.28;4962122;28;20055;-63
2023/06/02 02:25:07;;;;;;;8.30;4.63;;;;;;;10.17;92.11;97161.66;4957133;28;20284;-63
2023/06/02 02:27:34;;;;;;;9.73;4.40;;;;;;;10.20;90.61;97159.25;4957009;28;20588;-63
2023/06/02 02:30:00;;;;;;;8.85;4.70;;;;;;;10.11;91.20;97163.47;4965120;28;20429;-63
2023/06/02 02:32:27;;;;;;;11.13;4.95;;;;;;;10.09;91.42;97160.19;4956809;28;20062;-63
2023/06/02 02:34:54;;;;;;;8.60;4.50;;;;;;;10.15;91.54;97165.41;4957730;28;20034;-63
2023/06/02 02:37:22;;;;;;;10.40;4.47;;;;;;;10.00;91.90;97166.06;4975810;28;20045;-63
2023/06/02 02:40:09;;;;;;;12.57;4.22;;;;;;;10.02;91.62;97163.94;4961860;28;20505;-63
2023/06/02 02:42:36;;;;;;;7.72;4.38;;;;;;;10.23;90.16;97164.16;4979802;28;20066;-63
2023/06/02 02:45:03;;;;;;;9.68;4.53;;;;;;;10.04;91.68;97166.38;4956958;28;20118;-63
2023/06/02 02:47:31;;;;;;;8.45;4.90;;;;;;;10.10;91.44;97169.97;4956194;28;20047;-63
2023/06/02 02:49:59;;;;;;;7.93;4.45;;;;;;;9.96;91.43;97181.19;4954249;28;20051;-63
2023/06/02 02:52:27;;;;;;;7.55;4.20;;;;;;;10.02;91.02;97174.75;4955457;28;20039;-63
2023/06/02 02:54:55;;;;;;;10.00;4.40;;;;;;;10.07;90.83;97175.88;4979048;28;20453;-63
2023/06/02 02:57:22;;;;;;;8.45;4.68;;;;;;;10.00;91.24;97171.47;4963500;28;20042;-63
2023/06/02 02:59:49;;;;;;;8.10;4.72;;;;;;;10.00;91.51;97168.75;4965071;28;20057;-63
2023/06/02 03:02:16;;;;;;;9.00;4.30;;;;;;;10.07;91.35;97175.88;4960639;28;20043;-63
2023/06/02 03:04:43;;;;;;;9.15;4.07;;;;;;;9.92;91.03;97173.81;4957001;28;20105;-63
2023/06/02 03:07:09;;;;;;;9.57;4.45;;;;;;;9.79;92.08;97170.41;4957648;28;20049;-63
2023/06/02 03:09:39;;;;;;;8.85;4.88;;;;;;;9.84;91.88;97173.19;4958854;28;20047;-63
2023/06/02 03:12:07;;;;;;;11.38;4.72;;;;;;;9.87;91.20;97174.56;4960972;28;20083;-63
2023/06/02 03:14:33;;;;;;;9.65;5.68;;;;;;;9.80;92.32;97179.34;4966251;28;20046;-63
2023/06/02 03:17:02;;;;;;;8.63;4.57;;;;;;;9.60;93.21;97183.44;4958505;28;20130;-63
2023/06/02 03:19:29;;;;;;;11.20;4.80;;;;;;;9.61;93.00;97182.34;4956312;28;20051;-63
2023/06/02 03:21:56;;;;;;;9.73;5.22;;;;;;;9.56;93.30;97185.81;4958893;28;20043;-63
2023/06/02 03:24:24;;;;;;;7.80;4.88;;;;;;;9.57;93.79;97187.44;4954920;28;20046;-63
2023/06/02 03:26:55;;;;;;;10.25;4.70;;;;;;;9.62;92.89;97184.00;4954756;28;20529;-63
2023/06/02 03:29:22;;;;;;;8.13;4.25;;;;;;;9.55;93.09;97191.47;4958225;28;20634;-63
2023/06/02 03:31:52;;;;;;;10.32;4.70;;;;;;;9.49;93.60;97198.69;4954572;28;20078;-63
2023/06/02 03:34:20;;;;;;;9.85;5.60;;;;;;;9.57;93.94;97197.44;4952800;28;20050;-63
2023/06/02 03:36:48;;;;;;;11.50;5.25;;;;;;;9.55;93.47;97186.88;4959687;28;20373;-63
2023/06/02 03:39:15;;;;;;;8.65;4.97;;;;;;;9.70;92.99;97190.84;4960676;28;20042;-63
2023/06/02 03:41:43;;;;;;;11.30;5.07;;;;;;;9.83;91.43;97198.59;4973391;28;20074;-63
2023/06/02 03:44:10;;;;;;;9.63;4.82;;;;;;;9.47;93.47;97196.22;4957778;28;20042;-63
2023/06/02 03:46:36;;;;;;;9.50;4.90;;;;;;;9.53;93.55;97196.28;4957371;28;20058;-63
2023/06/02 03:49:04;;;;;;;9.88;4.50;;;;;;;9.67;92.75;97203.00;4956162;28;20034;-63
2023/06/02 03:51:31;;;;;;;9.75;5.03;;;;;;;9.75;91.94;97196.31;4962833;28;20413;-63
2023/06/02 03:53:59;;;;;;;7.57;4.68;;;;;;;9.71;93.26;97190.59;4962331;28;20312;-63
2023/06/02 03:56:26;;;;;;;9.80;5.18;;;;;;;9.82;92.31;97201.53;4957945;28;20041;-63
2023/06/02 03:58:53;;;;;;;9.52;5.28;;;;;;;9.99;91.29;97196.88;4964591;28;20144;-63
2023/06/02 04:01:21;;;;;;;13.02;5.70;;;;;;;10.17;90.11;97192.22;4961066;28;20054;-63
2023/06/02 04:03:50;;;;;;;9.35;5.43;;;;;;;10.25;89.73;97193.66;4957300;28;20047;-63
2023/06/02 04:06:17;;;;;;;11.38;5.10;;;;;;;10.39;89.31;97188.63;4956756;28;20066;-63
2023/06/02 04:08:46;;;;;;;11.80;5.43;;;;;;;10.55;88.32;97200.50;4942312;28;20062;-63
2023/06/02 04:11:13;;;;;;;8.13;5.15;;;;;;;10.38;89.10;97198.66;4960900;28;20418;-63
2023/06/02 04:13:40;;;;;;;10.05;4.93;;;;;;;10.32;90.25;97190.75;4960413;28;20046;-63
2023/06/02 04:16:07;;;;;;;8.77;5.13;;;;;;;10.45;88.98;97197.66;4955630;28;20143;-63
2023/06/02 04:18:41;;;;;;;10.68;4.75;;;;;;;10.56;89.43;97204.00;4954247;28;20537;-63
2023/06/02 04:21:09;;;;;;;10.10;5.22;;;;;;;10.85;87.71;97201.84;4957043;28;20039;-63
2023/06/02 04:23:38;;;;;;;10.38;5.38;;;;;;;10.58;89.73;97204.56;4972151;28;20046;-63
2023/06/02 04:26:05;;;;;;;10.48;5.57;;;;;;;10.86;88.05;97194.50;4954702;28;20097;-63
2023/06/02 04:28:35;;;;;;;13.00;5.53;;;;;;;10.89;88.09;97208.38;4955989;28;20043;-63
2023/06/02 04:31:02;;;;;;;9.70;5.60;;;;;;;11.06;87.47;97215.56;4959694;28;20057;-63
2023/06/02 04:33:31;;;;;;;11.43;5.72;;;;;;;11.12;87.81;97216.38;4975621;28;20335;-63
2023/06/02 04:36:00;;;;;;;12.95;5.70;;;;;;;11.19;87.64;97219.72;4958280;28;20050;-63
2023/06/02 04:38:27;;;;;;;9.65;5.60;;;;;;;11.34;87.25;97218.16;4956180;28;20071;-63
2023/06/02 04:40:56;;;;;;;12.77;5.53;;;;;;;11.51;86.37;97218.03;4957737;28;20089;-63
2023/06/02 04:43:23;;;;;;;10.13;5.93;;;;;;;11.55;86.12;97227.28;4954700;28;20046;-63
2023/06/02 04:45:49;;;;;;;10.88;5.43;;;;;;;11.62;85.54;97229.75;4958979;28;20145;-63
2023/06/02 04:48:18;;;;;;;17.30;5.60;;;;;;;11.65;87.22;97230.03;4972636;28;20526;-51
2023/06/02 04:50:45;;;;;;;8.75;5.35;;;;;;;11.74;85.52;97233.06;4960974;28;20047;-48
2023/06/02 04:53:14;;;;;;;9.00;5.57;;;;;;;11.80;84.45;97229.28;4953467;28;20047;-48
2023/06/02 04:55:44;;;;;;;9.60;5.03;;;;;;;11.93;83.53;97224.47;4958498;28;20051;-50
2023/06/02 04:58:11;;;;;;;10.23;5.30;;;;;;;12.25;82.53;97230.88;4961290;28;20050;-50
2023/06/02 05:00:38;;;;;;;9.77;5.30;;;;;;;12.31;81.64;97232.53;4974427;28;20271;-49
2023/06/02 05:03:06;;;;;;;9.90;5.30;;;;;;;12.35;81.33;97237.16;4960266;28;20039;-48
2023/06/02 05:05:33;;;;;;;8.98;5.28;;;;;;;12.46;81.19;97238.00;4954735;28;20039;-51
2023/06/02 05:07:59;;;;;;;11.25;6.25;;;;;;;12.38;81.99;97233.09;4953228;28;20053;-49
2023/06/02 05:10:26;;;;;;;10.23;5.20;;;;;;;12.38;81.87;97243.94;4957792;28;20596;-50
2023/06/02 05:12:54;;;;;;;10.65;5.07;;;;;;;12.56;81.23;97236.38;4956261;28;20113;-48
2023/06/02 05:15:20;;;;;;;10.93;5.63;;;;;;;12.63;81.06;97236.16;4970376;28;20047;-49
2023/06/02 05:17:48;;;;;;;10.05;5.90;;;;;;;12.64;80.89;97233.13;4951564;28;20058;-53
2023/06/02 05:20:18;;;;;;;11.90;5.70;;;;;;;12.48;82.65;97240.44;4955610;28;20448;-52
2023/06/02 05:22:45;;;;;;;10.32;5.47;;;;;;;12.48;82.20;97241.28;4953316;28;20383;-52
2023/06/02 05:25:12;;;;;;;10.95;6.47;;;;;;;12.64;81.84;97238.56;4948215;28;20047;-54
2023/06/02 05:27:39;;;;;;;10.85;6.10;;;;;;;12.61;82.58;97245.38;4948456;28;20070;-51
2023/06/02 05:30:08;;;;;;;9.60;5.68;;;;;;;12.75;82.91;97245.66;4957697;28;20138;-52
2023/06/02 05:32:34;;;;;;;12.40;5.90;;;;;;;12.87;80.95;97242.69;4952053;28;20064;-50
2023/06/02 05:35:04;;;;;;;10.45;6.30;;;;;;;12.52;82.37;97249.69;4953825;28;20044;-52
2023/06/02 05:37:30;;;;;;;10.65;6.15;;;;;;;12.56;82.74;97245.34;4958088;28;20133;-47
2023/06/02 05:39:58;;;;;;;12.60;6.60;;;;;;;12.58;83.77;97251.34;4974412;28;20402;-47
2023/06/02 05:42:25;;;;;;;12.82;5.80;;;;;;;12.48;84.46;97248.59;4955834;28;20452;-49
2023/06/02 05:44:53;;;;;;;12.23;6.28;;;;;;;12.63;83.52;97253.25;4958524;28;20071;-49
2023/06/02 05:47:19;;;;;;;10.85;5.72;;;;;;;12.69;84.01;97256.78;4973898;28;20074;-49
2023/06/02 05:49:47;;;;;;;10.27;6.47;;;;;;;12.67;83.87;97245.38;4951283;28;20047;-51
2023/06/02 05:52:13;;;;;;;11.40;5.95;;;;;;;12.88;82.39;97255.22;4955472;28;20497;-48
2023/06/02 05:54:40;;;;;;;11.10;5.88;;;;;;;12.89;83.75;97253.28;4955529;28;20789;-49
2023/06/02 05:57:07;;;;;;;11.57;6.03;;;;;;;12.93;82.75;97246.22;4959890;28;20039;-48
2023/06/02 05:59:34;;;;;;;10.40;6.30;;;;;;;12.91;83.23;97251.13;4950758;28;20058;-51
2023/06/02 06:02:02;;;;;;;11.90;6.18;;;;;;;12.71;83.75;97249.19;4951386;28;20046;-48
2023/06/02 06:04:29;;;;;;;17.05;6.57;;;;;;;12.72;84.39;97248.91;4958858;28;20061;-48
2023/06/02 06:06:58;;;;;;;10.68;6.07;;;;;;;12.67;85.02;97245.38;4953001;28;20391;-47
2023/06/02 06:09:25;;;;;;;11.23;6.47;;;;;;;12.98;83.56;97248.94;4952116;28;20051;-54
2023/06/02 06:11:51;;;;;;;9.93;5.82;;;;;;;13.36;81.34;97247.88;4952427;28;20031;-65
2023/06/02 06:14:18;;;;;;;10.50;6.55;;;;;;;13.41;81.59;97247.84;4966282;28;20461;-65
2023/06/02 06:16:45;;;;;;;10.25;6.53;;;;;;;13.26;81.50;97249.50;4975744;28;20404;-65
2023/06/02 06:19:12;;;;;;;10.25;5.82;;;;;;;13.31;81.76;97256.84;4960599;28;20130;-65
2023/06/02 06:21:38;;;;;;;12.73;6.32;;;;;;;13.11;82.26;97247.59;4959153;28;20074;-65
2023/06/02 06:24:06;;;;;;;11.65;6.43;;;;;;;13.16;83.15;97252.22;4952736;28;20046;-65
2023/06/02 06:26:33;;;;;;;12.77;7.57;;;;;;;13.19;81.84;97259.03;4949044;28;20121;-65
2023/06/02 06:29:00;;;;;;;12.02;6.60;;;;;;;13.14;83.16;97262.56;4958086;28;20043;-65
2023/06/02 06:31:28;;;;;;;11.05;6.38;;;;;;;13.11;83.57;97261.19;4961047;28;20038;-65
2023/06/02 06:33:54;;;;;;;11.27;6.72;;;;;;;13.13;83.38;97263.66;4960305;28;20113;-65
2023/06/02 06:36:21;;;;;;;11.55;7.32;;;;;;;13.26;83.57;97265.00;4957087;28;20042;-65
2023/06/02 06:38:47;;;;;;;12.70;6.20;;;;;;;13.42;83.73;97259.56;4959460;28;20062;-65
2023/06/02 06:41:14;;;;;;;12.10;7.07;;;;;;;13.43;82.28;97262.00;4954649;28;20070;-65
2023/06/02 06:43:41;;;;;;;13.13;7.53;;;;;;;13.36;82.61;97258.75;4956795;28;20054;-65
2023/06/02 06:46:10;;;;;;;12.32;6.70;;;;;;;13.42;83.14;97268.53;4959834;28;20052;-65
2023/06/02 06:48:37;;;;;;;11.13;6.75;;;;;;;13.53;81.94;97266.66;4956645;28;20050;-49
2023/06/02 06:51:04;;;;;;;15.50;6.57;;;;;;;13.43;83.33;97262.00;4957835;28;20062;-52
2023/06/02 06:53:31;;;;;;;11.50;6.80;;;;;;;13.51;83.24;97266.94;4957756;28;20132;-51
2023/06/02 06:55:57;;;;;;;11.70;6.43;;;;;;;13.72;81.78;97280.50;4959591;28;20110;-53
2023/06/02 06:58:24;;;;;;;14.85;6.55;;;;;;;13.74;81.33;97282.94;4954859;28;20441;-50
2023/06/02 07:00:50;;;;;;;10.15;6.85;;;;;;;13.77;82.43;97277.78;4958969;28;20047;-55
2023/06/02 07:03:17;;;;;;;11.93;6.60;;;;;;;13.90;82.01;97281.81;4955294;28;20049;-51
2023/06/02 07:05:44;;;;;;;10.88;6.57;;;;;;;13.78;81.28;97287.56;4960575;28;20050;-50
2023/06/02 07:08:10;;;;;;;11.48;6.63;;;;;;;13.95;81.21;97285.59;4957322;28;20130;-55
2023/06/02 07:10:37;;;;;;;13.25;6.88;;;;;;;13.99;82.17;97292.13;4961513;28;20150;-51
2023/06/02 07:13:03;;;;;;;11.25;6.32;;;;;;;14.03;81.54;97285.88;4958822;28;20070;-65
2023/06/02 07:15:30;;;;;;;11.45;6.32;;;;;;;14.25;81.21;97290.16;4958632;28;20044;-65
2023/06/02 07:17:57;;;;;;;11.00;5.97;;;;;;;14.41;79.65;97281.94;4960690;28;20043;-65
2023/06/02 07:20:24;;;;;;;12.48;6.78;;;;;;;14.38;78.60;97283.28;4961180;28;20046;-64
2023/06/02 07:22:50;;;;;;;9.50;6.47;;;;;;;14.24;79.09;97293.16;4960714;28;20054;-65
2023/06/02 07:25:17;;;;;;;11.05;6.55;;;;;;;14.21;80.12;97286.34;4959026;28;20059;-65
2023/06/02 07:27:43;;;;;;;11.88;6.47;;;;;;;14.34;79.83;97284.94;4963129;28;20054;-65
2023/06/02 07:30:10;;;;;;;10.25;5.90;;;;;;;14.49;78.67;97280.53;4958729;28;20043;-65
2023/06/02 07:32:37;;;;;;;11.00;6.30;;;;;;;14.62;77.95;97271.72;4957919;28;20043;-65
2023/06/02 07:35:05;;;;;;;9.43;6.45;;;;;;;14.49;78.13;97284.03;4954377;28;20049;-65
2023/06/02 07:37:32;;;;;;;9.90;6.18;;;;;;;14.58;79.16;97276.13;4958232;28;20442;-65
2023/06/02 07:39:58;;;;;;;9.50;6.05;;;;;;;14.76;79.05;97277.41;4958512;28;20088;-65
2023/06/02 07:42:25;;;;;;;9.23;6.03;;;;;;;14.80;77.03;97274.94;4952334;28;20035;-65
2023/06/02 07:44:52;;;;;;;13.02;6.57;;;;;;;14.96;76.41;97286.53;4960030;28;20051;-64
2023/06/02 07:47:18;;;;;;;11.75;6.38;;;;;;;14.98;76.43;97286.25;4954033;28;20118;-65
2023/06/02 07:49:45;;;;;;;17.88;6.60;;;;;;;14.94;76.97;97286.03;4963316;28;20293;-65
2023/06/02 07:52:12;;;;;;;9.65;6.53;;;;;;;14.90;75.82;97284.97;4962480;28;20035;-65
2023/06/02 07:54:38;;;;;;;9.40;5.93;;;;;;;14.82;76.54;97281.72;4954441;28;20054;-64
2023/06/02 07:57:05;;;;;;;11.02;6.15;;;;;;;14.83;76.62;97277.09;4961076;28;20390;-65
2023/06/02 07:59:32;;;;;;;10.68;6.32;;;;;;;14.98;76.42;97281.63;4953701;28;20400;-65
2023/06/02 08:01:58;;;;;;;10.13;5.78;;;;;;;15.00;76.67;97278.63;4961663;28;20087;-64
2023/06/02 08:04:28;;;;;;;10.95;6.10;;;;;;;14.84;76.47;97281.44;4962317;28;20256;-65
2023/06/02 08:06:55;;;;;;;9.55;6.28;;;;;;;14.88;76.50;97276.25;4958915;28;20138;-64
2023/06/02 08:09:22;;;;;;;11.35;6.53;;;;;;;14.66;77.09;97274.69;4955338;28;20081;-65
2023/06/02 08:11:49;;;;;;;10.27;6.18;;;;;;;14.85;77.12;97277.63;4956395;28;20042;-64
2023/06/02 08:14:16;;;;;;;11.65;6.47;;;;;;;14.85;76.98;97274.09;4959322;28;20045;-65
2023/06/02 08:16:42;;;;;;;9.30;6.20;;;;;;;15.06;75.89;97282.94;4958355;28;20051;-65
2023/06/02 08:19:23;;;;;;;9.50;6.03;;;;;;;15.20;74.26;97280.38;4958435;28;20038;-65
2023/06/02 08:21:50;;;;;;;12.18;6.38;;;;;;;15.13;74.54;97279.88;4954314;28;20502;-65
2023/06/02 08:24:17;;;;;;;12.55;6.20;;;;;;;15.41;74.32;97289.22;4962157;28;20070;-65
2023/06/02 08:26:44;;;;;;;9.43;5.68;;;;;;;15.39;75.45;97279.69;4951574;28;20055;-65
2023/06/02 08:29:11;;;;;;;10.90;5.93;;;;;;;15.52;73.76;97275.50;4959436;28;20043;-65
2023/06/02 08:31:38;;;;;;;10.60;6.20;;;;;;;15.58;73.04;97286.06;4957660;28;20546;-65
2023/06/02 08:34:08;;;;;;;10.20;5.60;;;;;;;15.64;72.95;97278.66;4956640;28;20282;-65
2023/06/02 08:36:35;;;;;;;10.93;6.95;;;;;;;15.63;73.75;97273.50;4957734;28;20510;-66
2023/06/02 08:39:06;;;;;;;9.63;5.90;;;;;;;15.92;72.90;97270.72;4959433;28;20046;-65
2023/06/02 08:41:36;;;;;;;11.57;6.40;;;;;;;15.96;71.18;97280.00;4955635;28;20050;-65
2023/06/02 08:44:03;;;;;;;10.70;6.10;;;;;;;15.88;72.07;97272.41;4958644;28;20042;-64
2023/06/02 08:46:30;;;;;;;8.93;5.60;;;;;;;15.86;70.78;97269.97;4962166;28;20043;-65
2023/06/02 08:48:58;;;;;;;9.43;5.72;;;;;;;15.97;71.00;97275.34;4959669;28;20047;-65
2023/06/02 08:51:25;;;;;;;10.07;6.00;;;;;;;16.08;69.27;97276.06;4960638;28;20047;-65
2023/06/02 08:53:51;;;;;;;8.93;5.50;;;;;;;15.78;72.62;97269.78;4955433;28;20070;-64
2023/06/02 08:56:18;;;;;;;10.85;5.80;;;;;;;15.70;72.99;97272.03;4957908;28;20050;-64
2023/06/02 08:58:46;;;;;;;10.20;5.93;;;;;;;15.92;72.73;97268.00;4956226;28;20501;-65
2023/06/02 09:01:13;;;;;;;12.27;6.72;;;;;;;16.01;71.66;97272.84;4963063;28;20041;-65
2023/06/02 09:03:40;;;;;;;9.73;6.47;;;;;;;16.08;70.94;97265.13;4962334;28;20039;-65
2023/06/02 09:06:17;;;;;;;8.82;5.65;;;;;;;15.93;71.86;97269.66;4949636;28;20126;-65
2023/06/02 09:09:00;;;;;;;11.18;6.20;;;;;;;16.11;71.63;97275.47;4955657;28;20043;-65
2023/06/02 09:11:29;;;;;;;11.13;6.40;;;;;;;16.42;70.13;97269.63;4961781;28;20042;-65
2023/06/02 09:13:57;;;;;;;11.13;5.63;;;;;;;16.46;69.58;97272.59;4959943;28;20317;-65
2023/06/02 09:16:35;;;;;;;8.75;6.18;;;;;;;16.57;69.52;97270.53;4956373;28;20047;-65
2023/06/02 09:19:02;;;;;;;9.68;6.85;;;;;;;16.54;69.29;97280.13;4958818;28;20553;-64
2023/06/02 09:21:32;;;;;;;10.02;5.70;;;;;;;16.73;69.22;97276.63;4951406;28;20051;-65
2023/06/02 09:24:01;;;;;;;10.30;6.57;;;;;;;16.62;68.42;97281.44;4957371;28;20133;-65
2023/06/02 09:26:31;;;;;;;8.48;5.65;;;;;;;16.69;69.98;97273.66;4956398;28;20058;-65
2023/06/02 09:29:10;;;;;;;9.85;6.28;;;;;;;16.81;69.06;97280.63;4950999;28;20055;-65
2023/06/02 09:31:48;;;;;;;10.48;6.50;;;;;;;16.80;68.60;97281.72;4957281;28;20605;-65
2023/06/02 09:34:16;;;;;;;10.27;5.72;;;;;;;16.86;66.36;97277.81;4954280;28;20561;-65
2023/06/02 09:36:46;;;;;;;9.05;6.13;;;;;;;16.84;66.57;97274.56;4952186;28;20429;-65
2023/06/02 09:39:13;;;;;;;10.98;6.70;;;;;;;16.81;66.82;97277.88;4958474;28;20565;-64
2023/06/02 09:41:40;;;;;;;12.32;6.35;;;;;;;16.74;66.49;97272.78;4956434;28;20058;-66
2023/06/02 09:44:11;;;;;;;9.95;5.13;;;;;;;16.87;68.04;97263.00;4950070;28;20456;-66
2023/06/02 09:46:40;;;;;;;7.53;5.57;;;;;;;17.11;66.88;97267.63;4953967;28;20046;-65
2023/06/02 09:49:07;;;;;;;8.18;5.53;;;;;;;17.42;65.90;97264.38;4960118;28;20039;-66
2023/06/02 09:51:37;;;;;;;11.18;5.93;;;;;;;17.57;64.41;97273.47;4955012;28;20105;-65
2023/06/02 09:54:06;;;;;;;8.90;6.25;;;;;;;17.40;63.49;97272.88;4952454;28;20047;-66
2023/06/02 09:56:36;;;;;;;12.95;5.80;;;;;;;17.29;63.06;97272.25;4952868;28;20047;-65
2023/06/02 09:59:06;;;;;;;9.25;6.22;;;;;;;17.43;61.97;97274.22;4953259;28;20051;-65
2023/06/02 10:01:37;;;;;;;10.77;6.18;;;;;;;17.37;63.54;97284.44;4956349;28;20119;-65
2023/06/02 10:04:05;;;;;;;10.05;5.22;;;;;;;17.33;63.37;97282.59;4958817;28;20529;-66
2023/06/02 10:06:51;;;;;;;9.57;5.97;;;;;;;17.54;62.53;97283.06;4963156;28;20517;-65
2023/06/02 10:09:57;;;;;;;9.43;5.78;;;;;;;17.68;62.09;97280.38;4959460;28;20156;-66
2023/06/02 10:12:49;;;;;;;14.77;6.85;;;;;;;17.69;61.72;97273.75;4954901;28;20137;-65
2023/06/02 10:15:34;;;;;;;;;;;;;;;17.81;60.23;97273.31;4959135;28;20043;-64
2023/06/02 10:18:19;;;;;;;8.10;5.30;;;;;;;17.96;60.59;97269.47;4958135;28;19930;-65
2023/06/02 10:21:08;;;;;;;8.35;5.35;;;;;;;18.15;59.79;97272.16;4957280;28;20050;-65
2023/06/02 10:23:48;;;;;;;8.93;5.32;;;;;;;18.19;58.87;97281.38;4952701;28;20552;-65
2023/06/02 10:26:29;;;;;;;7.18;5.32;;;;;;;18.26;58.29;97277.41;4957190;28;20047;-65
2023/06/02 10:29:00;;;;;;;10.60;5.53;;;;;;;18.03;58.03;97282.75;4964696;28;20054;-65
2023/06/02 10:31:33;;;;;;;10.60;6.00;;;;;;;18.05;57.64;97270.38;4959016;28;20498;-65
2023/06/02 10:34:00;;;;;;;7.25;5.22;;;;;;;18.18;58.19;97273.47;4955991;28;20453;-64
2023/06/02 10:37:05;;;;;;;9.75;4.88;;;;;;;18.26;57.33;97277.41;4962676;28;20078;-64
2023/06/02 10:39:41;;;;;;;9.50;4.70;;;;;;;18.26;57.87;97261.78;4961188;28;20042;-64
2023/06/02 10:42:12;;;;;;;8.90;4.50;;;;;;;18.34;57.48;97265.72;4961367;28;20655;-64
2023/06/02 10:44:39;;;;;;;9.18;5.93;;;;;;;18.58;57.74;97261.97;4962890;28;20046;-65
2023/06/02 10:47:17;;;;;;;8.80;5.55;;;;;;;18.76;57.70;97251.94;4961472;28;20042;-65
2023/06/02 10:49:50;;;;;;;7.88;4.70;;;;;;;19.02;56.85;97247.81;4957707;28;20042;-65
2023/06/02 10:52:17;;;;;;;8.90;5.13;;;;;;;19.04;56.74;97259.28;4962442;28;20490;-64
2023/06/02 10:54:43;;;;;;;9.07;4.97;;;;;;;18.99;56.51;97246.50;4955363;28;20035;-64
2023/06/02 10:57:12;;;;;;;12.30;4.95;;;;;;;19.02;54.94;97248.59;4961547;28;20050;-65
2023/06/02 10:59:38;;;;;;;8.55;4.00;;;;;;;19.22;53.94;97249.28;4956643;28;20085;-64
2023/06/02 11:02:05;;;;;;;8.27;4.45;;;;;;;19.20;53.76;97248.78;4960918;28;20061;-65
2023/06/02 11:04:33;;;;;;;6.35;4.47;;;;;;;19.26;54.39;97244.78;4961061;28;20050;-64
2023/06/02 11:07:21;;;;;;;9.20;4.90;;;;;;;19.34;54.17;97243.22;4958477;28;20076;-65
2023/06/02 11:09:59;;;;;;;9.80;4.80;;;;;;;19.38;54.13;97248.91;4957138;28;20049;-65
2023/06/02 11:12:50;;;;;;;7.03;5.13;;;;;;;19.46;55.25;97256.41;4956051;28;20101;-65
2023/06/02 11:15:19;;;;;;;8.20;5.00;;;;;;;19.37;53.75;97250.84;4955662;28;20042;-65
2023/06/02 11:17:47;;;;;;;7.80;4.65;;;;;;;19.50;53.45;97252.69;4958673;28;20196;-65
2023/06/02 11:20:16;;;;;;;13.10;4.90;;;;;;;19.63;53.29;97248.25;4960323;28;20043;-65
2023/06/02 11:22:43;;;;;;;9.52;4.88;;;;;;;19.52;53.73;97241.41;4956837;28;20399;-65
2023/06/02 11:25:11;;;;;;;9.30;5.28;;;;;;;19.57;53.55;97248.69;4953783;28;20054;-65
2023/06/02 11:27:42;;;;;;;8.52;4.68;;;;;;;19.66;52.95;97243.25;4958458;28;20129;-65
2023/06/02 11:30:10;;;;;;;7.88;5.03;;;;;;;19.73;52.70;97241.69;4960486;28;20118;-65
2023/06/02 11:32:37;;;;;;;7.13;4.60;;;;;;;20.01;52.55;97243.44;4953139;28;20043;-65
2023/06/02 11:35:07;;;;;;;5.97;4.45;;;;;;;20.23;51.95;97239.00;4957607;28;20050;-65
2023/06/02 11:37:36;;;;;;;8.52;5.45;;;;;;;20.15;51.01;97240.56;4958659;28;20049;-65
2023/06/02 11:40:05;;;;;;;7.78;4.82;;;;;;;20.32;51.27;97241.75;4955287;28;20137;-65